Terminal Aerodrome Forecast
Issued by NWS

Current Version | Previous Version | Text Only | Print | Product List | Glossary On
Versions: 1 2 3 4 5 6 7 8 9 10 11 12 13 14 15
673
FTAK31 PAJN 240526
TAFAWG
TAF
PAWG 240526Z 2406/2506 09010KT 6SM -RA BR FEW003 OVC035
     FM240800 11010KT 4SM -RA BR SCT005 OVC020
     FM241200 12008KT 4SM -SHRA BR SCT003 OVC010
     FM241700 VRB05KT 6SM BR VCSH OVC015
     FM242000 VRB05KT P6SM VCSH OVC025
      AMD LTD TO CLD VIS AND WIND 2406/2415=

USA.gov is the U.S. government's official web portal to all federal, state and local government web resources and services.